createdAt,value
2018-07-10T00:02:07.534Z,67.80
2018-07-10T00:04:46.886Z,68.30
2018-07-10T00:07:26.486Z,68.10
2018-07-10T00:10:05.138Z,67.90
2018-07-10T00:12:33.289Z,68.30
2018-07-10T00:15:01.475Z,68.80
2018-07-10T00:17:29.673Z,68.40
2018-07-10T00:19:57.888Z,68.00
2018-07-10T00:22:26.064Z,67.70
2018-07-10T00:24:54.232Z,68.20
2018-07-10T00:27:22.446Z,68.50
2018-07-10T00:32:18.537Z,68.80
2018-07-10T00:34:46.694Z,68.60
2018-07-10T00:37:14.867Z,69.50
2018-07-10T00:39:43.022Z,70.30
2018-07-10T00:42:11.174Z,69.90
2018-07-10T00:44:39.331Z,70.10
2018-07-10T00:47:07.492Z,69.80
2018-07-10T00:49:35.901Z,69.70
2018-07-10T00:52:04.093Z,70.10
2018-07-10T00:54:32.283Z,70.50
2018-07-10T00:57:00.600Z,71.00
2018-07-10T00:59:28.753Z,71.10
2018-07-10T01:01:56.950Z,71.10
2018-07-10T01:04:25.370Z,71.20
2018-07-10T01:06:53.574Z,71.70
2018-07-10T01:09:21.758Z,71.80
2018-07-10T01:11:49.961Z,71.20
2018-07-10T01:14:18.159Z,71.50
2018-07-10T01:16:46.365Z,71.70
2018-07-10T01:19:16.160Z,72.00
2018-07-10T01:21:45.621Z,72.10
2018-07-10T01:24:16.776Z,72.20
2018-07-10T01:26:45.050Z,72.50
2018-07-10T01:29:20.193Z,72.50
2018-07-10T01:31:50.298Z,72.60
2018-07-10T01:34:18.504Z,72.40
2018-07-10T01:36:46.751Z,72.40
2018-07-10T01:39:15.182Z,72.30
2018-07-10T01:41:43.758Z,72.30
2018-07-10T01:44:12.510Z,72.00
2018-07-10T01:46:40.703Z,71.80
2018-07-10T01:49:08.897Z,71.60
2018-07-10T01:51:37.094Z,71.50
2018-07-10T01:54:05.295Z,71.80
2018-07-10T01:56:33.551Z,71.70
2018-07-10T01:59:02.062Z,71.50
2018-07-10T02:01:30.309Z,71.50
2018-07-10T02:03:59.947Z,71.30
2018-07-10T02:06:28.709Z,71.50
2018-07-10T02:08:57.382Z,71.10
2018-07-10T02:11:25.763Z,71.10
2018-07-10T02:13:54.025Z,71.30
2018-07-10T02:16:22.302Z,71.00
2018-07-10T02:18:50.686Z,70.90
2018-07-10T02:21:18.874Z,71.00
2018-07-10T02:23:47.313Z,71.20
2018-07-10T02:26:20.527Z,71.70
2018-07-10T02:28:49.648Z,71.20
2018-07-10T02:31:17.930Z,71.20
2018-07-10T02:33:46.152Z,71.30
2018-07-10T02:36:14.342Z,71.30
2018-07-10T02:38:46.245Z,71.20
2018-07-10T02:41:16.731Z,71.10
2018-07-10T02:43:53.038Z,71.30
2018-07-10T02:46:21.478Z,71.30
2018-07-10T02:48:49.859Z,71.40
2018-07-10T02:51:18.288Z,71.70
2018-07-10T02:53:46.821Z,71.80
2018-07-10T02:56:16.719Z,71.90
2018-07-10T03:01:12.936Z,72.10
2018-07-10T03:03:42.279Z,72.00
2018-07-10T03:06:10.500Z,71.70
2018-07-10T03:08:38.939Z,71.80
2018-07-10T03:11:07.148Z,71.90
2018-07-10T03:13:35.759Z,72.00
2018-07-10T03:16:03.971Z,72.30
2018-07-10T03:18:32.559Z,72.60
2018-07-10T03:21:00.883Z,72.30
2018-07-10T03:23:29.071Z,72.20
2018-07-10T03:25:57.275Z,71.80
2018-07-10T03:28:25.463Z,71.80
2018-07-10T03:30:53.655Z,71.60
2018-07-10T03:33:21.871Z,71.50
2018-07-10T03:35:50.290Z,71.40
2018-07-10T03:38:18.508Z,71.70
2018-07-10T03:40:46.734Z,71.60
2018-07-10T03:43:15.253Z,71.30
2018-07-10T03:45:43.459Z,72.10
2018-07-10T03:48:11.649Z,71.10
2018-07-10T03:50:39.887Z,71.10
2018-07-10T03:53:08.089Z,71.50
2018-07-10T03:55:36.750Z,71.20
2018-07-10T03:58:05.175Z,70.80
2018-07-10T04:00:34.766Z,71.30
2018-07-10T04:03:03.527Z,71.70
2018-07-10T04:05:32.015Z,71.30
2018-07-10T04:08:00.189Z,71.30
2018-07-10T04:10:30.324Z,71.20
2018-07-10T04:13:02.954Z,70.70
2018-07-10T04:15:31.414Z,70.60
2018-07-10T04:18:05.638Z,70.20
2018-07-10T04:20:45.283Z,70.50
2018-07-10T04:23:13.439Z,70.70
2018-07-10T04:25:41.602Z,70.40
2018-07-10T04:28:16.498Z,70.50
2018-07-10T04:30:56.951Z,70.60
2018-07-10T04:33:25.153Z,71.10
2018-07-10T04:35:53.378Z,71.10
2018-07-10T04:38:26.359Z,71.10
2018-07-10T04:40:57.938Z,70.80
2018-07-10T04:43:27.307Z,70.40
2018-07-10T04:45:57.405Z,69.40
2018-07-10T04:48:30.833Z,69.10
2018-07-10T04:51:36.778Z,69.60
2018-07-10T04:54:25.263Z,69.00
2018-07-10T04:56:57.850Z,69.30
2018-07-10T04:59:26.011Z,69.10
2018-07-10T05:01:54.162Z,69.10
2018-07-10T05:04:22.319Z,69.20
2018-07-10T05:06:50.492Z,69.70
2018-07-10T05:09:18.638Z,69.30
2018-07-10T05:11:46.790Z,69.20
2018-07-10T05:14:14.941Z,69.00
2018-07-10T05:16:43.107Z,68.70
2018-07-10T05:19:11.258Z,68.40
2018-07-10T05:21:40.223Z,69.80
2018-07-10T05:24:08.512Z,69.50
2018-07-10T05:26:36.720Z,69.30
2018-07-10T05:29:05.116Z,69.30
2018-07-10T05:31:35.007Z,68.90
2018-07-10T05:34:03.154Z,69.70
2018-07-10T05:36:31.313Z,69.10
2018-07-10T05:39:05.710Z,69.80
2018-07-10T05:41:42.144Z,70.60
2018-07-10T05:44:10.311Z,70.50
2018-07-10T05:46:38.827Z,68.60
2018-07-10T05:49:07.173Z,69.50
2018-07-10T05:51:45.001Z,70.40
2018-07-10T05:54:13.745Z,70.00
2018-07-10T05:56:41.990Z,70.10
2018-07-10T05:59:10.252Z,69.80
2018-07-10T06:01:39.514Z,69.60
2018-07-10T06:04:08.815Z,70.30
2018-07-10T06:06:37.013Z,70.50
2018-07-10T06:09:06.179Z,70.50
2018-07-10T06:11:35.774Z,70.80
2018-07-10T06:14:04.144Z,70.30
2018-07-10T06:16:32.331Z,70.30
2018-07-10T06:19:00.518Z,70.90
2018-07-10T06:23:58.252Z,71.00
2018-07-10T06:26:26.510Z,69.60
2018-07-10T06:29:00.866Z,70.50
2018-07-10T06:31:32.665Z,70.40
2018-07-10T06:34:04.380Z,70.10
2018-07-10T06:36:36.190Z,70.00
2018-07-10T06:39:10.166Z,69.70
2018-07-10T06:41:40.273Z,69.70
2018-07-10T06:44:08.482Z,69.30
2018-07-10T06:46:43.650Z,70.50
2018-07-10T06:49:26.761Z,70.00
2018-07-10T06:52:14.918Z,69.30
2018-07-10T06:55:15.487Z,69.70
2018-07-10T06:57:51.131Z,69.80
2018-07-10T07:00:19.466Z,68.10
2018-07-10T07:02:47.791Z,67.70
2018-07-10T07:05:15.974Z,67.40
2018-07-10T07:07:44.192Z,68.40
2018-07-10T07:10:13.530Z,68.80
2018-07-10T07:12:42.417Z,70.80
2018-07-10T07:15:12.331Z,67.30
2018-07-10T07:17:41.358Z,66.20
2018-07-10T07:20:09.936Z,67.80
2018-07-10T07:22:38.131Z,67.60
2018-07-10T07:25:06.328Z,67.40
2018-07-10T07:27:34.518Z,67.40
2018-07-10T07:30:02.715Z,67.30
2018-07-10T07:32:31.378Z,66.70
2018-07-10T07:34:59.590Z,66.60
2018-07-10T07:37:27.839Z,67.20
2018-07-10T07:42:26.384Z,66.50
2018-07-10T07:44:54.564Z,67.30
2018-07-10T07:47:27.395Z,66.50
2018-07-10T07:49:55.693Z,66.60
2018-07-10T07:52:26.451Z,66.20
2018-07-10T07:54:54.614Z,66.30
2018-07-10T07:57:23.668Z,65.90
2018-07-10T07:59:51.955Z,65.90
2018-07-10T08:02:20.647Z,65.40
2018-07-10T08:04:48.847Z,64.40
2018-07-10T08:07:17.957Z,64.50
2018-07-10T08:09:46.122Z,65.00
2018-07-10T08:12:14.676Z,65.90
2018-07-10T08:14:43.000Z,64.80
2018-07-10T08:17:11.157Z,65.70
2018-07-10T08:19:39.383Z,66.30
2018-07-10T08:22:07.546Z,65.00
2018-07-10T08:24:35.761Z,66.10
2018-07-10T08:27:04.019Z,64.60
2018-07-10T08:29:32.471Z,63.60
2018-07-10T08:32:00.647Z,64.50
2018-07-10T08:34:30.050Z,64.70
2018-07-10T08:36:58.224Z,65.50
2018-07-10T08:39:26.385Z,64.70
2018-07-10T08:41:54.542Z,64.80
2018-07-10T08:44:23.170Z,63.80
2018-07-10T08:46:54.051Z,63.50
2018-07-10T08:49:24.791Z,62.70
2018-07-10T08:51:53.189Z,62.30
2018-07-10T08:54:23.414Z,61.20
2018-07-10T08:56:52.203Z,62.60
2018-07-10T08:59:20.863Z,62.30
2018-07-10T09:01:49.667Z,63.10
2018-07-10T09:04:18.967Z,62.80
2018-07-10T09:06:47.964Z,62.80
2018-07-10T09:11:44.510Z,64.10
2018-07-10T09:16:41.625Z,61.90
2018-07-10T09:19:11.046Z,60.90
2018-07-10T09:21:40.977Z,61.50
2018-07-10T09:24:09.174Z,61.50
2018-07-10T09:26:37.374Z,61.80
2018-07-10T09:29:05.571Z,62.10
2018-07-10T09:31:35.731Z,60.90
2018-07-10T09:34:03.932Z,60.80
2018-07-10T09:36:32.110Z,62.30
2018-07-10T09:39:00.308Z,62.40
2018-07-10T09:41:28.834Z,62.70
2018-07-10T09:43:57.341Z,63.80
2018-07-10T09:46:27.587Z,61.60
2018-07-10T09:48:57.054Z,61.50
2018-07-10T09:51:25.262Z,62.30
2018-07-10T09:53:53.694Z,61.40
2018-07-10T09:56:21.899Z,61.50
2018-07-10T09:58:51.861Z,60.20
2018-07-10T10:01:26.517Z,61.20
2018-07-10T10:03:54.969Z,59.80
2018-07-10T10:06:23.943Z,61.10
2018-07-10T10:08:52.141Z,62.60
2018-07-10T10:11:20.307Z,62.80
2018-07-10T10:13:48.715Z,61.90
2018-07-10T10:16:16.879Z,62.80
2018-07-10T10:21:13.016Z,61.10
2018-07-10T10:23:41.321Z,62.80
2018-07-10T10:26:10.050Z,61.00
2018-07-10T10:28:38.198Z,62.50
2018-07-10T10:31:06.358Z,59.90
2018-07-10T10:33:34.506Z,60.60
2018-07-10T10:36:02.670Z,59.60
2018-07-10T10:38:30.832Z,59.70
2018-07-10T10:40:59.546Z,61.30
2018-07-10T10:43:28.236Z,61.50
2018-07-10T10:45:56.421Z,60.20
2018-07-10T10:48:24.577Z,59.70
2018-07-10T10:50:52.751Z,58.50
2018-07-10T10:53:21.587Z,60.50
2018-07-10T10:55:49.770Z,59.00
2018-07-10T10:58:19.254Z,59.90
2018-07-10T11:00:47.459Z,59.30
2018-07-10T11:03:15.698Z,58.80
2018-07-10T11:05:44.627Z,57.70
2018-07-10T11:08:13.319Z,57.00
2018-07-10T11:10:42.271Z,58.50
2018-07-10T11:13:10.683Z,55.10
2018-07-10T11:15:45.490Z,56.70
2018-07-10T11:18:39.522Z,56.90
2018-07-10T11:21:14.434Z,56.60
2018-07-10T11:23:48.323Z,58.60
2018-07-10T11:26:25.609Z,56.60
2018-07-10T11:28:54.516Z,55.90
2018-07-10T11:31:22.734Z,57.50
2018-07-10T11:33:50.935Z,53.40
2018-07-10T11:36:19.131Z,53.00
2018-07-10T11:38:47.627Z,55.70
2018-07-10T11:41:16.257Z,54.70
2018-07-10T11:43:44.787Z,54.70
2018-07-10T11:46:13.022Z,56.00
2018-07-10T11:48:41.238Z,53.60
2018-07-10T11:51:09.472Z,55.40
2018-07-10T11:53:38.174Z,53.20
2018-07-10T11:56:06.378Z,52.80
2018-07-10T11:58:34.818Z,52.70
2018-07-10T12:01:03.311Z,54.30
2018-07-10T12:03:39.829Z,54.00
2018-07-10T12:06:08.768Z,55.10
2018-07-10T12:08:36.943Z,54.50
2018-07-10T12:11:14.935Z,54.50
2018-07-10T12:13:43.266Z,54.60
2018-07-10T12:16:11.598Z,56.40
2018-07-10T12:18:39.759Z,55.10
2018-07-10T12:21:09.031Z,53.50
2018-07-10T12:23:37.197Z,53.90
2018-07-10T12:26:07.040Z,54.00
2018-07-10T12:28:35.189Z,52.90
2018-07-10T12:31:03.615Z,53.30
2018-07-10T12:33:31.808Z,52.30
2018-07-10T12:36:00.247Z,53.60
2018-07-10T12:38:28.456Z,51.60
2018-07-10T12:40:56.945Z,52.10
2018-07-10T12:43:25.148Z,52.50
2018-07-10T12:45:53.306Z,52.00
2018-07-10T12:48:21.539Z,50.60
2018-07-10T12:50:49.690Z,50.00
2018-07-10T12:53:18.142Z,50.80
2018-07-10T12:55:46.305Z,50.80
2018-07-10T12:58:15.118Z,50.80
2018-07-10T13:00:43.645Z,51.50
2018-07-10T13:03:12.290Z,50.00
2018-07-10T13:05:45.747Z,51.20
2018-07-10T13:08:13.918Z,49.80
2018-07-10T13:10:42.095Z,49.90
2018-07-10T13:13:10.335Z,50.70
2018-07-10T13:15:38.965Z,52.10
2018-07-10T13:18:07.131Z,52.90
2018-07-10T13:20:35.427Z,53.00
2018-07-10T13:23:03.642Z,48.10
2018-07-10T13:25:31.845Z,49.20
2018-07-10T13:28:00.058Z,51.90
2018-07-10T13:30:28.219Z,48.80
2018-07-10T13:32:56.449Z,49.30
2018-07-10T13:35:24.623Z,48.90
2018-07-10T13:37:53.084Z,49.50
2018-07-10T13:40:21.242Z,48.80
2018-07-10T13:42:53.811Z,51.00
2018-07-10T13:45:23.326Z,47.30
2018-07-10T13:47:51.577Z,49.20
2018-07-10T13:50:21.817Z,48.20
2018-07-10T13:52:50.192Z,47.10
2018-07-10T13:55:18.576Z,48.20
2018-07-10T13:58:18.901Z,47.10
2018-07-10T14:00:51.126Z,47.10
2018-07-10T14:03:19.319Z,48.50
2018-07-10T14:05:47.515Z,47.70
2018-07-10T14:08:15.970Z,50.10
2018-07-10T14:10:44.180Z,49.20
2018-07-10T14:13:12.370Z,50.40
2018-07-10T14:15:40.898Z,47.00
2018-07-10T14:18:09.103Z,48.70
2018-07-10T14:20:43.169Z,47.40
2018-07-10T14:23:11.570Z,48.70
2018-07-10T14:25:39.790Z,47.90
2018-07-10T14:28:07.998Z,46.60
2018-07-10T14:30:36.278Z,47.90
2018-07-10T14:33:04.487Z,48.10
2018-07-10T14:35:32.912Z,48.40
2018-07-10T14:38:03.072Z,52.80
2018-07-10T14:40:31.873Z,55.10
2018-07-10T14:43:00.253Z,55.40
2018-07-10T14:45:28.475Z,56.10
2018-07-10T14:47:58.011Z,57.80
2018-07-10T14:50:26.679Z,64.10
2018-07-10T14:52:55.233Z,68.10
2018-07-10T14:55:24.363Z,72.30
2018-07-10T14:57:53.086Z,74.50
2018-07-10T15:00:21.291Z,76.40
2018-07-10T15:02:49.489Z,77.70
2018-07-10T15:05:18.020Z,77.90
2018-07-10T15:07:46.206Z,77.40
2018-07-10T15:10:14.395Z,79.40
2018-07-10T15:12:42.585Z,79.60
2018-07-10T15:15:10.828Z,77.50
2018-07-10T15:17:44.326Z,78.10
2018-07-10T15:20:12.560Z,76.80
2018-07-10T15:22:40.812Z,77.00
2018-07-10T15:25:10.247Z,79.00
2018-07-10T15:27:38.612Z,76.90
2018-07-10T15:30:07.232Z,76.90
2018-07-10T15:32:35.303Z,77.30
2018-07-10T15:35:03.768Z,78.00
2018-07-10T15:37:32.016Z,76.30
2018-07-10T15:40:00.238Z,79.30
2018-07-10T15:42:28.533Z,78.60
2018-07-10T15:44:56.732Z,77.30
2018-07-10T15:47:24.962Z,77.80
2018-07-10T15:49:53.159Z,80.50
2018-07-10T15:52:21.358Z,81.60
2018-07-10T15:54:49.551Z,81.00
2018-07-10T15:57:17.758Z,80.20
2018-07-10T15:59:45.948Z,82.30
2018-07-10T16:02:14.138Z,81.40
2018-07-10T16:04:42.318Z,78.70
2018-07-10T16:07:10.806Z,80.20
2018-07-10T16:09:39.007Z,79.50
2018-07-10T16:12:07.357Z,78.00
2018-07-10T16:14:37.634Z,77.60
2018-07-10T16:17:12.352Z,77.80
2018-07-10T16:19:43.629Z,77.50
2018-07-10T16:22:20.531Z,78.70
2018-07-10T16:24:50.626Z,78.20
2018-07-10T16:27:23.752Z,78.30
2018-07-10T16:29:51.958Z,76.70
2018-07-10T16:32:20.180Z,77.50
2018-07-10T16:34:48.373Z,79.20
2018-07-10T16:37:16.587Z,79.60
2018-07-10T16:39:45.079Z,80.60
2018-07-10T16:42:18.574Z,78.30
2018-07-10T16:44:46.880Z,79.10
2018-07-10T16:47:29.622Z,78.50
2018-07-10T16:50:03.519Z,79.60
2018-07-10T16:53:03.054Z,79.20
2018-07-10T16:55:31.302Z,78.70
2018-07-10T16:57:59.827Z,80.50
2018-07-10T17:00:28.235Z,80.40
2018-07-10T17:02:58.241Z,80.90
2018-07-10T17:05:27.130Z,79.60
2018-07-10T17:07:55.847Z,80.10
2018-07-10T17:10:24.112Z,79.20
2018-07-10T17:12:52.316Z,77.70
2018-07-10T17:15:20.496Z,80.10
2018-07-10T17:17:48.658Z,79.90
2018-07-10T17:20:16.811Z,81.10
2018-07-10T17:22:45.281Z,78.60
2018-07-10T17:25:13.471Z,79.30
2018-07-10T17:27:44.682Z,80.10
2018-07-10T17:32:43.592Z,80.30
2018-07-10T17:35:12.887Z,81.00
2018-07-10T17:37:44.379Z,81.60
2018-07-10T17:40:12.565Z,82.40
2018-07-10T17:42:40.943Z,83.80
2018-07-10T17:45:19.639Z,83.00
2018-07-10T17:47:48.428Z,82.00
2018-07-10T17:50:16.575Z,82.30
2018-07-10T17:52:44.927Z,81.30
2018-07-10T17:55:13.087Z,81.10
2018-07-10T17:57:41.847Z,81.10
2018-07-10T18:00:10.182Z,82.70
2018-07-10T18:02:38.352Z,83.30
2018-07-10T18:05:06.534Z,83.30
2018-07-10T18:07:34.698Z,83.80
2018-07-10T18:12:30.903Z,84.10
2018-07-10T18:14:59.112Z,85.60
2018-07-10T18:17:27.285Z,83.80
2018-07-10T18:19:55.680Z,83.20
2018-07-10T18:22:23.859Z,84.60
2018-07-10T18:24:52.049Z,84.90
2018-07-10T18:27:20.737Z,84.10
2018-07-10T18:29:48.903Z,82.70
2018-07-10T18:32:17.079Z,81.90
2018-07-10T18:34:45.251Z,83.60
2018-07-10T18:37:13.410Z,84.10
2018-07-10T18:39:41.900Z,83.60
2018-07-10T18:42:10.066Z,82.50
2018-07-10T18:44:38.227Z,85.00
2018-07-10T18:47:06.391Z,84.90
2018-07-10T18:49:34.599Z,84.40
2018-07-10T18:52:02.775Z,84.30
2018-07-10T18:54:35.590Z,84.80
2018-07-10T18:57:16.091Z,85.10
2018-07-10T18:59:49.383Z,85.30
2018-07-10T19:02:24.933Z,84.60
2018-07-10T19:04:57.183Z,84.90
2018-07-10T19:07:25.350Z,85.90
2018-07-10T19:09:53.578Z,85.30
2018-07-10T19:12:21.729Z,86.60
2018-07-10T19:14:49.838Z,86.90
2018-07-10T19:17:22.735Z,86.50
2018-07-10T19:19:52.970Z,86.30
2018-07-10T19:22:22.608Z,86.00
2018-07-10T19:24:50.817Z,87.20
2018-07-10T19:27:27.846Z,86.00
2018-07-10T19:29:57.883Z,86.30
2018-07-10T19:32:26.206Z,85.30
2018-07-10T19:34:59.897Z,85.20
2018-07-10T19:37:29.651Z,85.20
2018-07-10T19:39:57.818Z,85.00
2018-07-10T19:42:26.575Z,85.50
2018-07-10T19:44:54.959Z,86.20
2018-07-10T19:47:24.412Z,85.20
2018-07-10T19:49:53.493Z,85.50
2018-07-10T19:52:22.670Z,85.20
2018-07-10T19:54:50.869Z,84.10
2018-07-10T19:57:34.782Z,84.10
2018-07-10T20:00:03.059Z,84.20
2018-07-10T20:05:03.059Z,84.80
2018-07-10T20:07:41.374Z,85.00
2018-07-10T20:10:12.921Z,85.30
2018-07-10T20:12:53.876Z,84.80
2018-07-10T20:15:38.582Z,85.00
2018-07-10T20:18:15.367Z,85.80
2018-07-10T20:21:00.126Z,85.30
2018-07-10T20:23:49.791Z,85.50
2018-07-10T20:27:27.519Z,85.30
2018-07-10T20:30:04.192Z,85.10
2018-07-10T20:32:41.139Z,86.30
2018-07-10T20:35:15.426Z,85.70
2018-07-10T20:37:44.330Z,86.00
2018-07-10T20:40:15.487Z,85.70
2018-07-10T20:42:44.199Z,85.30
2018-07-10T20:45:12.369Z,85.30
2018-07-10T20:50:15.117Z,84.90
2018-07-10T20:52:51.615Z,85.20
2018-07-10T20:55:19.791Z,85.10
2018-07-10T20:57:56.124Z,85.70
2018-07-10T21:00:24.527Z,85.30
2018-07-10T21:03:18.509Z,85.00
2018-07-10T21:05:48.248Z,84.80
2018-07-10T21:08:31.246Z,86.00
2018-07-10T21:11:04.232Z,85.10
2018-07-10T21:13:40.364Z,85.30
2018-07-10T21:17:16.691Z,84.60
2018-07-10T21:20:03.159Z,85.60
2018-07-10T21:22:36.718Z,85.10
2018-07-10T21:25:06.987Z,86.30
2018-07-10T21:28:45.799Z,85.50
2018-07-10T21:31:28.413Z,85.90
2018-07-10T21:34:00.904Z,86.00
2018-07-10T21:36:36.227Z,86.30
2018-07-10T21:39:08.824Z,87.20
2018-07-10T21:41:48.453Z,86.30
2018-07-10T21:44:39.984Z,86.10
2018-07-10T21:47:19.614Z,85.30
2018-07-10T21:52:18.646Z,86.10
2018-07-10T21:54:46.816Z,86.60
2018-07-10T21:57:16.407Z,86.70
2018-07-10T22:00:01.394Z,85.90
2018-07-10T22:02:30.185Z,86.80
2018-07-10T22:04:58.943Z,87.00
2018-07-10T22:07:28.555Z,88.00
2018-07-10T22:10:00.772Z,87.90
2018-07-10T22:12:28.988Z,87.60
2018-07-10T22:17:26.159Z,86.60
2018-07-10T22:22:31.414Z,87.30
2018-07-10T22:25:02.250Z,86.70
2018-07-10T22:27:30.418Z,87.70
2018-07-10T22:30:04.482Z,86.90
2018-07-10T22:32:40.411Z,87.80
2018-07-10T22:35:08.650Z,87.50
2018-07-10T22:37:36.838Z,88.20
2018-07-10T22:40:05.736Z,87.80
2018-07-10T22:42:33.927Z,87.70
2018-07-10T22:45:02.094Z,87.60
2018-07-10T22:47:33.006Z,87.10
2018-07-10T22:50:04.659Z,87.30
2018-07-10T22:52:33.627Z,87.00
2018-07-10T22:55:02.207Z,87.10
2018-07-10T22:57:30.393Z,86.70
2018-07-10T22:59:58.578Z,87.90
2018-07-10T23:02:27.091Z,88.20
2018-07-10T23:04:55.315Z,88.50
2018-07-10T23:07:23.521Z,87.90
2018-07-10T23:09:51.759Z,88.00
2018-07-10T23:12:20.018Z,87.00
2018-07-10T23:14:48.272Z,87.10
2018-07-10T23:17:16.495Z,87.20
2018-07-10T23:22:12.935Z,88.60
2018-07-10T23:24:41.122Z,87.40
2018-07-10T23:27:09.367Z,88.40
2018-07-10T23:29:39.311Z,88.30
2018-07-10T23:34:35.462Z,88.30
2018-07-10T23:39:42.243Z,88.30
2018-07-10T23:42:16.320Z,88.10
2018-07-10T23:44:46.979Z,88.80
2018-07-10T23:47:29.491Z,88.40
2018-07-10T23:50:04.819Z,89.00
2018-07-10T23:52:44.115Z,88.60
2018-07-10T23:55:12.319Z,88.60
2018-07-10T23:57:40.529Z,88.80
